Time;durP1;ratioP1;P1;durP2;ratioP2;P2;SDS_P1;SDS_P2;PMS_P1;PMS_P2;Temp;Humidity;BMP_temperature;BMP_pressure;BME280_temperature;BME280_humidity;BME280_pressure;Samples;Min_cycle;Max_cycle;Signal;HPM_P1;HPM_P2
2022/04/19 00:00:06;;;;;;;11.30;8.27;;;11.00;89.40;;;;;;5031598;28;20032;-72
2022/04/19 00:02:31;;;;;;;11.15;7.60;;;11.00;88.80;;;;;;5031709;28;20036;-72
2022/04/19 00:04:59;;;;;;;10.20;7.47;;;10.90;88.50;;;;;;5019829;28;20034;-72
2022/04/19 00:07:25;;;;;;;10.00;6.95;;;11.10;95.90;;;;;;5011359;28;20116;-72
2022/04/19 00:09:50;;;;;;;9.63;7.53;;;11.90;89.10;;;;;;5010403;28;20034;-72
2022/04/19 00:12:16;;;;;;;9.70;7.65;;;10.90;88.30;;;;;;5011558;28;20044;-72
2022/04/19 00:14:41;;;;;;;8.73;7.03;;;10.90;88.40;;;;;;5011877;28;20034;-72
2022/04/19 00:17:07;;;;;;;8.18;6.93;;;10.70;88.50;;;;;;5011242;28;20046;-72
2022/04/19 00:19:33;;;;;;;8.98;7.40;;;10.70;96.00;;;;;;5018825;28;20045;-72
2022/04/19 00:21:59;;;;;;;11.45;8.60;;;10.60;88.40;;;;;;5029625;28;20033;-72
2022/04/19 00:24:24;;;;;;;9.35;7.30;;;10.70;88.00;;;;;;5031423;28;20033;-72
2022/04/19 00:26:50;;;;;;;9.98;7.60;;;10.70;87.80;;;;;;5031181;28;20040;-72
2022/04/19 00:29:15;;;;;;;12.65;8.57;;;10.70;87.90;;;;;;5031170;28;20109;-72
2022/04/19 00:31:40;;;;;;;8.98;6.82;;;10.80;87.60;;;;;;5031298;28;20033;-72
2022/04/19 00:34:06;;;;;;;8.93;6.83;;;10.50;95.40;;;;;;5030356;28;20167;-72
2022/04/19 00:36:32;;;;;;;10.30;7.77;;;10.50;95.40;;;;;;5025747;28;20030;-72
2022/04/19 00:38:57;;;;;;;9.83;8.13;;;10.50;95.10;;;;;;5009704;28;20034;-72
2022/04/19 00:41:23;;;;;;;10.00;7.13;;;10.70;87.30;;;;;;5011173;28;20080;-72
2022/04/19 00:43:49;;;;;;;13.82;8.93;;;10.70;86.90;;;;;;5011324;28;20026;-72
2022/04/19 00:46:14;;;;;;;10.82;7.15;;;10.70;95.20;;;;;;5010948;28;20022;-72
2022/04/19 00:48:42;;;;;;;11.98;8.93;;;10.80;86.70;;;;;;5011169;28;20018;-72
2022/04/19 00:51:08;;;;;;;9.57;7.50;;;10.80;86.60;;;;;;5030351;28;20040;-73
2022/04/19 00:53:34;;;;;;;13.98;7.07;;;10.50;86.60;;;;;;5030860;28;20030;-72
2022/04/19 00:56:00;;;;;;;8.75;7.85;;;10.80;87.10;;;;;;5030279;28;20163;-72
2022/04/19 00:58:27;;;;;;;10.40;7.20;;;10.70;86.90;;;;;;5030651;28;20044;-72
2022/04/19 01:00:52;;;;;;;9.50;7.93;;;10.70;95.20;;;;;;5030598;28;20053;-72
2022/04/19 01:03:18;;;;;;;8.73;6.90;;;10.70;85.60;;;;;;5029999;28;20049;-72
2022/04/19 01:05:46;;;;;;;10.27;7.50;;;10.40;95.10;;;;;;5013585;28;20033;-73
2022/04/19 01:08:12;;;;;;;7.10;5.90;;;10.50;87.00;;;;;;5009153;28;20022;-72
2022/04/19 01:10:38;;;;;;;8.07;6.13;;;11.20;87.00;;;;;;5010872;28;20022;-73
2022/04/19 01:13:19;;;;;;;9.38;6.10;;;10.40;86.80;;;;;;5010397;28;20026;-73
2022/04/19 01:15:49;;;;;;;7.30;6.17;;;10.20;95.70;;;;;;5010995;28;20054;-73
2022/04/19 01:18:20;;;;;;;6.10;5.10;;;9.90;95.70;;;;;;5008649;28;20038;-73
2022/04/19 01:20:48;;;;;;;9.45;7.20;;;9.90;88.40;;;;;;5027889;28;20025;-71
2022/04/19 01:23:13;;;;;;;8.90;7.20;;;10.10;95.80;;;;;;5030047;28;20088;-72
2022/04/19 01:25:39;;;;;;;10.13;7.35;;;10.00;88.40;;;;;;5030304;28;20029;-72
2022/04/19 01:28:05;;;;;;;9.80;7.77;;;10.20;95.60;;;;;;5029425;28;20033;-71
2022/04/19 01:30:33;;;;;;;11.00;8.60;;;10.10;95.50;;;;;;5028908;28;20044;-73
2022/04/19 01:32:59;;;;;;;8.17;7.27;;;10.30;95.60;;;;;;5029436;28;20025;-73
2022/04/19 01:35:24;;;;;;;10.20;7.90;;;10.10;95.40;;;;;;5030149;28;20034;-71
2022/04/19 01:37:51;;;;;;;10.13;7.07;;;10.10;95.50;;;;;;5010278;28;20406;-71
2022/04/19 01:40:17;;;;;;;10.63;8.23;;;10.30;95.50;;;;;;5024740;28;20490;-72
2022/04/19 01:42:58;;;;;;;9.43;7.33;;;10.20;95.70;;;;;;5030313;28;20104;-72
2022/04/19 01:45:31;;;;;;;12.27;8.15;;;9.90;95.50;;;;;;5028882;28;20081;-72
2022/04/19 01:47:58;;;;;;;10.15;8.23;;;10.00;95.80;;;;;;5009794;28;20053;-73
2022/04/19 01:50:26;;;;;;;10.40;7.37;;;9.90;95.70;;;;;;5010265;28;20395;-73
2022/04/19 01:52:53;;;;;;;8.17;6.97;;;10.40;88.60;;;;;;5010207;28;20026;-71
2022/04/19 01:55:20;;;;;;;12.53;7.77;;;10.70;88.50;;;;;;5021497;28;20041;-72
2022/04/19 01:58:06;;;;;;;8.27;7.17;;;9.80;95.60;;;;;;5029406;28;20033;-72
2022/04/19 02:00:31;;;;;;;13.43;9.40;;;9.80;95.50;;;;;;5029518;28;20034;-72
2022/04/19 02:02:57;;;;;;;10.77;7.90;;;10.00;95.60;;;;;;5027851;28;20057;-72
2022/04/19 02:05:23;;;;;;;12.70;9.67;;;9.80;95.60;;;;;;5028573;28;20029;-73
2022/04/19 02:07:49;;;;;;;10.23;7.70;;;9.90;95.50;;;;;;5028352;28;20486;-73
2022/04/19 02:10:16;;;;;;;11.30;7.33;;;9.90;95.30;;;;;;5013302;28;20029;-72
2022/04/19 02:12:43;;;;;;;12.30;7.70;;;10.00;95.70;;;;;;5010278;28;20026;-72
2022/04/19 02:15:09;;;;;;;9.83;8.80;;;9.80;95.00;;;;;;5009836;28;20030;-72
2022/04/19 02:17:44;;;;;;;8.80;7.23;;;9.90;95.00;;;;;;5009504;28;20041;-72
2022/04/19 02:20:10;;;;;;;16.53;7.97;;;9.80;95.10;;;;;;5009762;28;20128;-72
2022/04/19 02:22:36;;;;;;;10.30;7.63;;;;;;;;;;5009787;28;20053;-72
2022/04/19 02:25:02;;;;;;;11.43;8.60;;;9.90;95.10;;;;;;5012209;28;20045;-72
2022/04/19 02:27:30;;;;;;;11.63;8.00;;;9.70;95.00;;;;;;5026166;28;20029;-72
2022/04/19 02:29:56;;;;;;;11.37;7.77;;;9.80;95.10;;;;;;5028933;28;20034;-72
2022/04/19 02:32:25;;;;;;;10.93;8.97;;;9.60;95.20;;;;;;5029876;28;20030;-73
2022/04/19 02:34:52;;;;;;;8.67;6.97;;;10.10;95.10;;;;;;5029539;28;20092;-73
2022/04/19 02:37:17;;;;;;;12.30;8.23;;;9.70;87.00;;;;;;5029051;28;20128;-72
2022/04/19 02:39:46;;;;;;;11.23;7.90;;;9.80;86.70;;;;;;5020469;28;20136;-72
2022/04/19 02:42:11;;;;;;;9.97;7.33;;;9.70;95.00;;;;;;5013267;28;20034;-72
2022/04/19 02:44:37;;;;;;;9.37;7.20;;;9.60;95.10;;;;;;5013043;28;20087;-72
2022/04/19 02:47:03;;;;;;;11.47;7.83;;;9.10;95.00;;;;;;5013115;28;20046;-72
2022/04/19 02:49:29;;;;;;;10.47;7.13;;;9.60;95.30;;;;;;5020768;28;20072;-72
2022/04/19 02:51:55;;;;;;;10.43;7.50;;;9.50;95.20;;;;;;5031402;28;20045;-72
2022/04/19 02:54:20;;;;;;;9.40;7.03;;;9.50;95.40;;;;;;5030831;28;20495;-72
2022/04/19 02:56:47;;;;;;;11.77;7.67;;;9.50;95.40;;;;;;5032149;28;20033;-72
2022/04/19 02:59:13;;;;;;;12.00;8.13;;;9.30;95.50;;;;;;5031808;28;20045;-73
2022/04/19 03:01:38;;;;;;;11.60;8.87;;;9.60;95.60;;;;;;5030731;28;20501;-72
2022/04/19 03:04:04;;;;;;;9.30;7.17;;;9.40;95.20;;;;;;5026402;28;20030;-73
2022/04/19 03:06:30;;;;;;;11.97;8.80;;;9.40;95.20;;;;;;5011424;28;20026;-72
2022/04/19 03:08:56;;;;;;;10.77;7.67;;;;;;;;;;5012626;28;20034;-72
2022/04/19 03:11:21;;;;;;;9.13;7.43;;;9.40;95.40;;;;;;5013461;28;20038;-72
2022/04/19 03:13:47;;;;;;;9.83;6.90;;;9.10;95.60;;;;;;5013181;28;20383;-72
2022/04/19 03:16:14;;;;;;;9.87;5.80;;;9.10;95.60;;;;;;5014374;28;20037;-72
2022/04/19 03:18:41;;;;;;;8.60;6.23;;;8.90;95.80;;;;;;5012172;28;20038;-72
2022/04/19 03:21:11;;;;;;;7.83;5.80;;;8.70;95.80;;;;;;5012538;28;20372;-72
2022/04/19 03:29:07;;;;;;;10.20;6.95;;;8.50;96.10;;;;;;5012238;28;20049;-72
2022/04/19 03:31:33;;;;;;;8.57;6.33;;;8.40;95.40;;;;;;5023016;28;20076;-72
2022/04/19 03:33:59;;;;;;;9.90;6.10;;;8.40;96.30;;;;;;5031916;28;20027;-72
2022/04/19 03:36:24;;;;;;;9.47;6.57;;;8.30;96.50;;;;;;5031974;28;20390;-72
2022/04/19 03:38:50;;;;;;;9.93;7.47;;;8.20;96.60;;;;;;5032218;28;20041;-71
2022/04/19 03:41:15;;;;;;;8.23;6.10;;;8.20;96.60;;;;;;5031473;28;20489;-72
2022/04/19 03:43:42;;;;;;;9.07;6.10;;;;;;;;;;5031749;28;20032;-72
2022/04/19 03:46:08;;;;;;;8.50;6.33;;;8.00;96.80;;;;;;5022961;28;20026;-72
2022/04/19 03:48:34;;;;;;;9.43;6.57;;;8.10;96.80;;;;;;5012366;28;20034;-72
2022/04/19 03:51:00;;;;;;;8.80;7.00;;;8.10;96.80;;;;;;5011489;28;20101;-72
2022/04/19 03:53:25;;;;;;;10.77;6.80;;;8.20;96.80;;;;;;5012268;28;20117;-72
2022/04/19 03:55:51;;;;;;;7.23;5.53;;;8.10;93.70;;;;;;5012172;28;20022;-72
2022/04/19 03:58:17;;;;;;;13.90;7.60;;;8.00;97.20;;;;;;5010881;28;20101;-72
2022/04/19 04:00:42;;;;;;;10.63;7.67;;;8.10;97.00;;;;;;5011915;28;20030;-72
2022/04/19 04:03:08;;;;;;;10.80;7.23;;;8.20;97.00;;;;;;5026739;28;20746;-72
2022/04/19 04:05:34;;;;;;;10.07;7.07;;;8.20;94.80;;;;;;5031793;28;20036;-73
2022/04/19 04:08:00;;;;;;;12.37;8.00;;;8.10;97.20;;;;;;5031255;28;20500;-72
2022/04/19 04:10:25;;;;;;;9.97;7.03;;;8.20;97.10;;;;;;5031624;28;20024;-73
2022/04/19 04:12:51;;;;;;;10.07;6.83;;;8.40;94.70;;;;;;5031140;28;20029;-72
2022/04/19 04:15:16;;;;;;;9.70;6.77;;;8.50;96.90;;;;;;5029725;28;20029;-72
2022/04/19 04:17:42;;;;;;;11.83;7.83;;;8.20;96.90;;;;;;5019997;28;20042;-72
2022/04/19 04:20:08;;;;;;;12.23;8.67;;;8.50;97.20;;;;;;5011322;28;20467;-72
2022/04/19 04:22:34;;;;;;;11.70;8.83;;;8.60;97.20;;;;;;5011582;28;20033;-72
2022/04/19 04:24:59;;;;;;;12.37;8.07;;;8.60;97.00;;;;;;5011250;28;20029;-72
2022/04/19 04:27:25;;;;;;;14.30;9.13;;;8.70;97.00;;;;;;5011197;28;20030;-72
2022/04/19 04:29:51;;;;;;;12.83;9.37;;;;;;;;;;5011372;28;20048;-72
2022/04/19 04:32:16;;;;;;;11.60;7.87;;;8.80;96.80;;;;;;5017723;28;20048;-72
2022/04/19 04:34:42;;;;;;;11.20;7.37;;;8.60;96.80;;;;;;5031360;28;20061;-72
2022/04/19 04:37:08;;;;;;;11.83;8.77;;;8.50;96.70;;;;;;5030741;28;20189;-72
2022/04/19 04:39:33;;;;;;;15.03;8.83;;;8.80;97.20;;;;;;5029649;28;20554;-72
2022/04/19 04:41:59;;;;;;;14.23;8.87;;;8.60;96.80;;;;;;5028988;28;20041;-73
2022/04/19 04:44:24;;;;;;;11.20;8.30;;;8.90;96.90;;;;;;5030820;28;20434;-72
2022/04/19 04:49:37;;;;;;;13.27;9.07;;;8.60;97.20;;;;;;5031020;28;20045;-72
2022/04/19 04:52:07;;;;;;;12.70;8.63;;;8.80;96.80;;;;;;5030522;28;20029;-72
2022/04/19 04:54:34;;;;;;;12.50;8.60;;;9.00;96.70;;;;;;5030773;28;20072;-72
2022/04/19 04:57:00;;;;;;;14.33;9.53;;;9.00;96.60;;;;;;5029676;28;20029;-72
2022/04/19 04:59:25;;;;;;;15.00;9.27;;;9.20;96.60;;;;;;5031010;28;20108;-72
2022/04/19 05:01:51;;;;;;;11.60;8.53;;;9.30;96.60;;;;;;5030088;28;20450;-72
2022/04/19 05:04:16;;;;;;;14.23;9.73;;;9.10;96.40;;;;;;5027660;28;20033;-72
2022/04/19 05:06:42;;;;;;;14.77;9.50;;;9.10;96.20;;;;;;5019873;28;20033;-72
2022/04/19 05:09:07;;;;;;;11.53;8.93;;;9.20;96.10;;;;;;5010524;28;20026;-72
2022/04/19 05:11:33;;;;;;;12.70;9.67;;;9.40;96.00;;;;;;5010100;28;20026;-71
2022/04/19 05:13:58;;;;;;;12.03;8.97;;;9.80;96.00;;;;;;5010365;28;20029;-72
2022/04/19 05:16:24;;;;;;;17.37;8.97;;;9.40;95.80;;;;;;5010671;28;20494;-72
2022/04/19 05:18:49;;;;;;;16.33;10.13;;;9.60;95.80;;;;;;5028915;28;20038;-72
2022/04/19 05:21:15;;;;;;;14.07;9.47;;;9.70;95.80;;;;;;5028568;28;20048;-72
2022/04/19 05:23:40;;;;;;;13.57;9.37;;;9.80;95.70;;;;;;5030419;28;20147;-72
2022/04/19 05:26:06;;;;;;;15.43;10.47;;;9.80;95.80;;;;;;5029432;28;20083;-72
2022/04/19 05:28:32;;;;;;;17.93;9.90;;;9.60;95.70;;;;;;5045644;28;20032;-72
2022/04/19 05:30:57;;;;;;;14.90;10.33;;;9.90;95.70;;;;;;5028515;28;20105;-72
2022/04/19 05:33:23;;;;;;;13.93;10.10;;;10.50;88.40;;;;;;5028753;28;20025;-73
2022/04/19 05:35:48;;;;;;;13.00;9.70;;;9.90;95.60;;;;;;5030263;28;20502;-72
2022/04/19 05:38:14;;;;;;;15.47;8.90;;;10.00;95.50;;;;;;5029751;28;20048;-72
2022/04/19 05:40:40;;;;;;;14.47;9.70;;;9.80;95.60;;;;;;5029621;28;20072;-73
2022/04/19 05:43:06;;;;;;;14.90;9.83;;;9.90;87.50;;;;;;5020294;28;20518;-72
2022/04/19 05:45:32;;;;;;;14.07;10.03;;;10.10;95.20;;;;;;5010439;28;20031;-72
2022/04/19 05:47:58;;;;;;;14.33;10.00;;;10.30;95.20;;;;;;5022535;28;20030;-75
2022/04/19 05:50:23;;;;;;;14.20;9.87;;;10.20;94.90;;;;;;5029790;28;20033;-72
2022/04/19 05:52:49;;;;;;;12.73;9.93;;;10.30;94.70;;;;;;5028867;28;20057;-71
2022/04/19 05:55:30;;;;;;;15.87;10.40;;;10.60;94.50;;;;;;5141061;27;20212;-72
2022/04/19 05:57:55;;;;;;;14.30;11.00;;;10.60;94.80;;;;;;5104066;28;20380;-72
2022/04/19 06:00:21;;;;;;;15.23;10.03;;;11.00;86.10;;;;;;5106834;28;20028;-73
2022/04/19 06:05:30;;;;;;;12.75;9.20;;;11.30;84.30;;;;;;5106580;28;20092;-71
2022/04/19 06:07:56;;;;;;;16.70;11.68;;;11.50;86.20;;;;;;5105855;28;20039;-71
2022/04/19 06:10:22;;;;;;;15.93;10.63;;;11.00;94.60;;;;;;5106038;28;20066;-71
2022/04/19 06:12:47;;;;;;;11.50;7.70;;;11.10;94.40;;;;;;5103249;28;20032;-71
2022/04/19 06:15:13;;;;;;;15.40;10.48;;;11.00;84.80;;;;;;5086748;28;20040;-71
2022/04/19 06:17:40;;;;;;;13.20;9.73;;;11.10;94.10;;;;;;5093839;28;20032;-71
2022/04/19 06:20:07;;;;;;;15.40;9.73;;;11.20;94.00;;;;;;5093691;28;20036;-72
2022/04/19 06:22:33;;;;;;;15.53;10.23;;;11.30;84.10;;;;;;5090488;28;20052;-71
2022/04/19 06:24:59;;;;;;;13.68;9.48;;;11.30;84.20;;;;;;5086707;28;20047;-71
2022/04/19 06:27:25;;;;;;;19.63;11.73;;;11.40;84.10;;;;;;5095588;28;20028;-71
2022/04/19 06:29:52;;;;;;;15.80;12.13;;;11.50;83.30;;;;;;5106922;28;20068;-71
2022/04/19 06:32:19;;;;;;;13.13;9.32;;;11.60;83.80;;;;;;5092300;28;20047;-71
2022/04/19 06:34:44;;;;;;;15.15;9.60;;;11.70;83.10;;;;;;5087528;28;20040;-71
2022/04/19 06:37:10;;;;;;;11.63;7.35;;;11.80;83.00;;;;;;5086017;28;20085;-72
2022/04/19 06:39:36;;;;;;;15.85;9.15;;;;;;;;;;5087239;28;20063;-70
2022/04/19 06:42:02;;;;;;;16.27;10.95;;;12.00;80.90;;;;;;5086665;28;20154;-70
2022/04/19 06:44:27;;;;;;;16.70;11.20;;;12.00;82.60;;;;;;5086657;28;20036;-70
2022/04/19 06:46:53;;;;;;;14.73;11.23;;;12.10;81.90;;;;;;5115736;28;20036;-70
2022/04/19 06:49:18;;;;;;;17.17;10.15;;;12.20;81.40;;;;;;5106189;28;20357;-71
2022/04/19 06:51:44;;;;;;;14.20;10.35;;;12.30;81.00;;;;;;5105482;28;20080;-71
2022/04/19 06:54:11;;;;;;;13.80;9.77;;;12.40;80.80;;;;;;5106059;28;20051;-71
2022/04/19 06:56:36;;;;;;;14.38;9.95;;;12.50;80.60;;;;;;5105380;28;20027;-71
2022/04/19 06:59:02;;;;;;;17.45;11.07;;;13.40;79.70;;;;;;5106582;28;20119;-70
2022/04/19 07:01:27;;;;;;;16.10;10.82;;;12.70;79.40;;;;;;5106697;28;20118;-70
2022/04/19 07:03:53;;;;;;;12.60;8.38;;;12.60;78.70;;;;;;5102609;28;20103;-71
2022/04/19 07:06:19;;;;;;;13.32;8.73;;;13.50;79.90;;;;;;5095069;28;20028;-73
2022/04/19 07:08:45;;;;;;;19.95;10.10;;;13.70;79.60;;;;;;5093353;28;20061;-71
2022/04/19 07:11:12;;;;;;;12.48;8.48;;;13.10;79.60;;;;;;5091444;28;20026;-72
2022/04/19 07:13:38;;;;;;;13.25;9.43;;;13.70;79.20;;;;;;5092741;28;20032;-71
2022/04/19 07:16:05;;;;;;;14.13;8.77;;;13.10;78.00;;;;;;5092383;28;20023;-72
2022/04/19 07:18:31;;;;;;;11.13;7.88;;;13.30;77.40;;;;;;5082859;28;20123;-71
2022/04/19 07:26:40;;;;;;;13.68;9.15;;;13.40;74.80;;;;;;5084631;28;20075;-71
2022/04/19 07:29:12;;;;;;;16.08;11.20;;;13.50;75.10;;;;;;5088601;28;20110;-71
2022/04/19 07:31:43;;;;;;;13.40;9.45;;;13.60;75.20;;;;;;5081461;28;20485;-71
2022/04/19 07:34:10;;;;;;;12.90;9.23;;;13.60;77.00;;;;;;5074271;28;20043;-72
2022/04/19 07:36:39;;;;;;;13.32;8.85;;;13.70;75.90;;;;;;5089450;28;20831;-72
2022/04/19 07:39:08;;;;;;;13.18;8.65;;;13.60;75.10;;;;;;5092304;28;20023;-70
2022/04/19 07:41:34;;;;;;;14.88;9.73;;;13.80;73.40;;;;;;5090748;28;20028;-71
2022/04/19 07:44:01;;;;;;;15.73;9.10;;;14.50;75.40;;;;;;5091934;28;20378;-71
2022/04/19 07:46:28;;;;;;;13.10;8.77;;;14.80;74.50;;;;;;5092099;28;20024;-72
2022/04/19 07:48:54;;;;;;;12.27;7.75;;;13.90;74.30;;;;;;5092369;28;20472;-72
2022/04/19 07:51:20;;;;;;;12.65;7.72;;;13.90;74.50;;;;;;5089957;28;20078;-72
2022/04/19 07:53:46;;;;;;;13.77;8.02;;;14.00;74.00;;;;;;5091797;28;20068;-72
2022/04/19 07:56:12;;;;;;;10.40;6.47;;;15.00;74.50;;;;;;5092064;28;20512;-73
2022/04/19 07:58:37;;;;;;;15.27;8.73;;;14.10;73.20;;;;;;5091788;28;20321;-72
2022/04/19 08:01:03;;;;;;;12.35;7.57;;;14.10;72.60;;;;;;5092318;28;20024;-72
2022/04/19 08:03:29;;;;;;;13.05;8.50;;;14.20;73.00;;;;;;5091322;28;20103;-72
2022/04/19 08:05:55;;;;;;;11.98;7.43;;;14.30;72.80;;;;;;5090710;28;20027;-72
2022/04/19 08:08:21;;;;;;;12.32;7.43;;;14.20;72.10;;;;;;5091768;28;20036;-72
2022/04/19 08:10:50;;;;;;;13.48;8.02;;;14.60;72.50;;;;;;5092039;28;20124;-72
2022/04/19 08:13:16;;;;;;;10.80;7.25;;;14.30;73.30;;;;;;5091373;28;20473;-72
2022/04/19 08:15:42;;;;;;;9.43;6.28;;;14.60;72.40;;;;;;5089933;28;20119;-72
2022/04/19 08:18:11;;;;;;;10.30;7.15;;;14.60;71.70;;;;;;5088864;28;20027;-72
2022/04/19 08:20:37;;;;;;;8.88;6.55;;;14.60;71.80;;;;;;5091348;28;20107;-72
2022/04/19 08:23:03;;;;;;;9.32;5.78;;;14.90;72.50;;;;;;5091584;28;20521;-72
2022/04/19 08:25:29;;;;;;;9.55;6.50;;;15.70;72.70;;;;;;5090999;28;20047;-72
2022/04/19 08:27:54;;;;;;;11.27;6.50;;;14.70;71.50;;;;;;5090314;28;20067;-72
2022/04/19 08:30:20;;;;;;;9.30;6.03;;;14.80;71.60;;;;;;5091062;28;20107;-72
2022/04/19 08:32:45;;;;;;;8.43;6.05;;;14.90;71.90;;;;;;5077758;28;20058;-72
2022/04/19 08:35:12;;;;;;;10.63;6.28;;;14.80;72.20;;;;;;5090336;28;20043;-72
2022/04/19 08:37:38;;;;;;;9.13;5.93;;;15.00;71.70;;;;;;5088785;28;20458;-72
2022/04/19 08:40:06;;;;;;;10.18;6.25;;;15.20;71.30;;;;;;5090381;28;20028;-71
2022/04/19 08:42:32;;;;;;;8.63;5.20;;;15.20;71.80;;;;;;5089127;28;20085;-71
2022/04/19 08:45:01;;;;;;;8.63;6.03;;;15.20;71.90;;;;;;5076061;28;20177;-71
2022/04/19 08:47:30;;;;;;;9.57;5.63;;;15.30;72.50;;;;;;5075669;28;20385;-71
2022/04/19 08:49:55;;;;;;;10.07;5.45;;;15.40;72.40;;;;;;5069764;28;20028;-71
2022/04/19 08:52:21;;;;;;;11.13;7.22;;;15.40;71.80;;;;;;5070476;28;20039;-71
2022/04/19 08:57:33;;;;;;;8.95;6.13;;;15.40;71.30;;;;;;5071261;28;20035;-71
2022/04/19 09:00:00;;;;;;;8.45;5.00;;;15.40;71.30;;;;;;5089550;28;20032;-71
2022/04/19 09:02:29;;;;;;;5.78;3.88;;;15.50;71.80;;;;;;5090135;28;20055;-72
2022/04/19 09:05:10;;;;;;;10.40;5.97;;;15.60;72.00;;;;;;5089805;28;20465;-71
2022/04/19 09:07:37;;;;;;;8.48;5.50;;;15.60;71.70;;;;;;5090519;28;20035;-71
2022/04/19 09:10:03;;;;;;;9.95;6.43;;;16.90;71.80;;;;;;5090703;28;20028;-71
2022/04/19 09:12:29;;;;;;;7.03;4.53;;;15.80;70.40;;;;;;5090368;28;20091;-71
2022/04/19 09:15:05;;;;;;;8.25;5.63;;;15.80;70.30;;;;;;5090633;28;20036;-75
2022/04/19 09:17:42;;;;;;;12.20;5.63;;;15.90;68.00;;;;;;5088464;28;20024;-72
2022/04/19 09:20:09;;;;;;;7.65;4.72;;;15.90;70.30;;;;;;5090522;28;20020;-72
2022/04/19 09:22:36;;;;;;;7.45;4.18;;;15.90;69.10;;;;;;5090405;28;20024;-72
2022/04/19 09:25:24;;;;;;;9.82;5.68;;;16.00;68.40;;;;;;5089108;28;20473;-72
2022/04/19 09:27:51;;;;;;;7.78;3.70;;;16.00;69.60;;;;;;5090532;28;20027;-72
2022/04/19 09:30:23;;;;;;;9.02;5.32;;;16.00;68.20;;;;;;5090163;28;20059;-72
2022/04/19 09:33:05;;;;;;;7.88;5.25;;;16.10;66.80;;;;;;5089894;28;20106;-73
2022/04/19 09:35:44;;;;;;;9.40;5.50;;;16.10;69.30;;;;;;5090187;28;20058;-73
2022/04/19 09:38:12;;;;;;;6.70;4.55;;;16.10;69.50;;;;;;5090188;28;20035;-71
2022/04/19 09:40:38;;;;;;;7.95;3.85;;;16.20;68.90;;;;;;5090104;28;20016;-72
2022/04/19 09:43:23;;;;;;;6.55;4.47;;;16.30;68.50;;;;;;5089605;28;20024;-72
2022/04/19 09:45:56;;;;;;;7.45;5.00;;;16.40;69.50;;;;;;5090182;28;20032;-71
2022/04/19 09:48:37;;;;;;;6.53;4.13;;;16.40;65.10;;;;;;5091683;28;20473;-71
2022/04/19 09:51:07;;;;;;;7.63;4.90;;;16.40;64.50;;;;;;5091856;28;20032;-71
2022/04/19 09:53:47;;;;;;;10.85;4.72;;;16.30;66.90;;;;;;5089774;28;20476;-70
2022/04/19 09:56:18;;;;;;;7.35;3.47;;;16.20;65.40;;;;;;5089833;28;20495;-72
2022/04/19 09:58:48;;;;;;;6.43;4.45;;;16.30;67.40;;;;;;5089879;28;20031;-71
2022/04/19 10:09:36;;;;;;;;;;;16.40;67.40;;;;;;5091127;28;20020;-71
2022/04/19 10:12:10;;;;;;;9.43;4.60;;;16.40;66.70;;;;;;5089661;28;19908;-70
2022/04/19 10:14:36;;;;;;;7.70;4.90;;;16.40;68.20;;;;;;5089280;28;20036;-71
2022/04/19 10:17:03;;;;;;;9.45;5.40;;;16.40;67.10;;;;;;5089937;28;20031;-71
2022/04/19 10:19:30;;;;;;;10.10;5.88;;;16.50;68.00;;;;;;5090373;28;20039;-71
2022/04/19 10:21:58;;;;;;;11.18;6.88;;;16.50;67.00;;;;;;5089825;28;20024;-71
2022/04/19 10:24:27;;;;;;;7.55;5.25;;;16.60;66.70;;;;;;5089343;28;20027;-71
2022/04/19 10:26:52;;;;;;;7.80;4.30;;;16.70;67.00;;;;;;5089755;28;20453;-72
2022/04/19 10:29:21;;;;;;;8.95;5.20;;;16.60;66.90;;;;;;5089195;28;20099;-72
2022/04/19 10:31:58;;;;;;;11.18;6.85;;;16.80;67.20;;;;;;5089626;28;20012;-72
2022/04/19 10:34:34;;;;;;;8.13;4.90;;;16.90;66.60;;;;;;5089665;28;20036;-72
2022/04/19 10:37:15;;;;;;;8.48;5.50;;;16.80;65.50;;;;;;5088176;28;20020;-72
2022/04/19 10:39:49;;;;;;;10.05;5.28;;;17.10;65.30;;;;;;5088116;28;20028;-72
2022/04/19 10:42:36;;;;;;;8.98;5.55;;;16.70;64.30;;;;;;5093370;28;20482;-71
2022/04/19 10:45:13;;;;;;;8.45;5.22;;;16.80;67.00;;;;;;5092730;28;20085;-71
2022/04/19 10:47:51;;;;;;;10.63;6.25;;;16.70;67.50;;;;;;5092054;28;20039;-71
2022/04/19 10:50:33;;;;;;;7.88;5.20;;;16.80;67.80;;;;;;5093149;28;20024;-71
2022/04/19 10:53:09;;;;;;;8.40;4.90;;;16.90;64.90;;;;;;5093256;28;20076;-71
2022/04/19 10:55:37;;;;;;;7.95;4.38;;;16.80;67.20;;;;;;5092837;28;20271;-71
2022/04/19 10:58:16;;;;;;;7.75;5.05;;;16.80;66.70;;;;;;5091427;28;20024;-70
2022/04/19 11:00:41;;;;;;;7.13;4.15;;;17.00;64.40;;;;;;5093163;28;20024;-70
2022/04/19 11:03:10;;;;;;;8.55;5.05;;;17.00;66.00;;;;;;5093062;28;20039;-71
2022/04/19 11:05:38;;;;;;;6.22;3.83;;;16.90;66.60;;;;;;5092707;28;20030;-71
2022/04/19 11:08:25;;;;;;;7.93;4.18;;;17.00;66.10;;;;;;5093261;28;20024;-72
2022/04/19 11:10:55;;;;;;;9.88;5.88;;;17.10;65.00;;;;;;5092657;28;20111;-72
2022/04/19 11:13:39;;;;;;;6.95;4.45;;;17.20;63.90;;;;;;5092106;28;20461;-72
2022/04/19 11:16:13;;;;;;;8.25;5.25;;;17.20;63.80;;;;;;5092836;28;20040;-71
2022/04/19 11:18:39;;;;;;;8.40;4.82;;;17.20;63.80;;;;;;5092540;28;20020;-72
2022/04/19 11:21:12;;;;;;;9.77;5.53;;;17.20;64.30;;;;;;5092760;28;20461;-71
2022/04/19 11:23:48;;;;;;;7.47;4.38;;;17.20;65.20;;;;;;5092659;28;20020;-72
2022/04/19 11:26:26;;;;;;;7.10;4.53;;;17.20;63.70;;;;;;5091505;28;20092;-71
2022/04/19 11:29:10;;;;;;;6.47;3.95;;;17.20;66.00;;;;;;5092311;28;20024;-71
2022/04/19 11:31:56;;;;;;;6.05;3.22;;;17.20;66.20;;;;;;5090726;28;20059;-71
2022/04/19 11:34:22;;;;;;;8.80;5.53;;;17.20;66.00;;;;;;5092239;28;20477;-71
2022/04/19 11:36:48;;;;;;;8.30;4.63;;;17.30;66.00;;;;;;5092083;28;20027;-71
2022/04/19 11:46:44;;;;;;;11.40;5.60;;;17.30;64.70;;;;;;5092195;28;20465;-71
2022/04/19 11:47:50;;;;;;;9.02;4.82;;;17.30;64.80;;;;;;5091273;28;20075;-72
2022/04/19 11:50:29;;;;;;;9.93;4.88;;;17.40;66.60;;;;;;5092195;28;20530;-72
2022/04/19 11:52:59;;;;;;;9.40;5.63;;;17.20;66.10;;;;;;5092193;28;20376;-72
2022/04/19 11:55:27;;;;;;;10.75;6.10;;;17.50;65.70;;;;;;5092124;28;20063;-73
2022/04/19 11:58:06;;;;;;;8.85;5.53;;;17.60;65.70;;;;;;5091875;28;20062;-70
2022/04/19 12:00:32;;;;;;;10.05;6.47;;;17.60;66.60;;;;;;5091552;28;20027;-72
2022/04/19 12:02:58;;;;;;;8.73;5.32;;;17.60;65.60;;;;;;5092034;28;20481;-73
2022/04/19 12:05:27;;;;;;;11.07;5.30;;;17.60;64.90;;;;;;5092095;28;20523;-73
2022/04/19 12:07:55;;;;;;;10.13;6.18;;;17.60;65.30;;;;;;5091731;28;20028;-72
2022/04/19 12:10:21;;;;;;;7.82;5.13;;;17.70;65.40;;;;;;5091399;28;20059;-72
2022/04/19 12:12:48;;;;;;;9.60;6.00;;;17.60;65.80;;;;;;5091621;28;20380;-72
2022/04/19 12:15:40;;;;;;;6.10;4.68;;;17.60;66.30;;;;;;5091712;28;20086;-71
2022/04/19 12:18:06;;;;;;;8.95;5.72;;;17.70;64.60;;;;;;5087130;28;20152;-71
2022/04/19 12:20:45;;;;;;;12.52;5.72;;;17.60;65.20;;;;;;5070688;28;20366;-72
2022/04/19 12:23:18;;;;;;;5.28;3.72;;;17.60;65.80;;;;;;5086350;28;20028;-72
2022/04/19 12:26:01;;;;;;;5.57;3.58;;;17.70;65.90;;;;;;5080279;28;20032;-72
2022/04/19 12:28:39;;;;;;;6.25;4.65;;;17.70;64.70;;;;;;5081943;28;20016;-73
2022/04/19 12:31:05;;;;;;;7.82;5.60;;;17.80;64.30;;;;;;5081772;28;20016;-72
2022/04/19 12:33:31;;;;;;;5.82;4.28;;;17.70;64.80;;;;;;5078990;28;20378;-73
2022/04/19 12:35:57;;;;;;;7.18;5.35;;;17.70;65.40;;;;;;5091225;28;20024;-73
2022/04/19 12:38:33;;;;;;;8.73;5.32;;;17.70;65.20;;;;;;5091415;28;20442;-72
2022/04/19 12:40:59;;;;;;;5.95;4.30;;;17.90;65.90;;;;;;5090753;28;20145;-72
2022/04/19 12:43:45;;;;;;;6.65;4.05;;;17.70;65.00;;;;;;5091216;28;20099;-72
2022/04/19 12:46:14;;;;;;;6.43;4.18;;;17.80;66.70;;;;;;5091116;28;20066;-74
2022/04/19 12:48:40;;;;;;;5.55;4.35;;;17.80;65.70;;;;;;5090905;28;20020;-72
2022/04/19 12:51:06;;;;;;;6.55;3.50;;;18.30;65.40;;;;;;5090864;28;20477;-72
2022/04/19 12:53:33;;;;;;;4.90;3.30;;;17.90;65.50;;;;;;5090066;28;20082;-72
2022/04/19 12:56:09;;;;;;;5.05;3.47;;;17.90;65.90;;;;;;5090652;28;20027;-73
2022/04/19 12:58:45;;;;;;;5.18;3.97;;;18.00;66.20;;;;;;5090767;28;20059;-72
2022/04/19 13:01:11;;;;;;;3.92;3.15;;;17.90;66.20;;;;;;5090926;28;20089;-72
2022/04/19 13:03:36;;;;;;;5.25;4.13;;;18.00;65.80;;;;;;5088725;28;20469;-72
2022/04/19 13:14:34;;;;;;;5.20;4.30;;;17.90;63.40;;;;;;5089753;28;20079;-72
2022/04/19 13:17:00;;;;;;;3.90;2.80;;;18.00;65.70;;;;;;5088801;28;20023;-73
2022/04/19 13:19:26;;;;;;;4.38;2.85;;;17.90;65.40;;;;;;5088703;28;20063;-73
2022/04/19 13:21:52;;;;;;;4.68;3.33;;;18.00;65.90;;;;;;5082289;28;20063;-73
2022/04/19 13:24:17;;;;;;;4.03;3.22;;;18.30;65.80;;;;;;5067341;28;20043;-72
2022/04/19 13:26:44;;;;;;;3.47;3.17;;;17.90;65.30;;;;;;5068040;28;20029;-73
2022/04/19 13:29:11;;;;;;;5.45;3.92;;;18.00;64.90;;;;;;5077556;28;20043;-73
2022/04/19 13:31:36;;;;;;;4.68;3.75;;;18.10;65.30;;;;;;5090036;28;20465;-73